Time;durP1;ratioP1;P1;durP2;ratioP2;P2;SDS_P1;SDS_P2;PMS_P1;PMS_P2;Temp;Humidity;BMP_temperature;BMP_pressure;BME280_temperature;BME280_humidity;BME280_pressure;Samples;Min_cycle;Max_cycle;Signal;HPM_P1;HPM_P2
2022/12/29 00:01:26;;;;;;;;;;;;;;;0.74;100.00;96509.47;5043338;28;19925;-66
2022/12/29 00:03:51;;;;;;;;;;;;;;;0.52;100.00;96511.06;5049040;28;19921;-67
2022/12/29 00:06:17;;;;;;;;;;;;;;;0.38;100.00;96507.63;5038300;28;20386;-66
2022/12/29 00:08:42;;;;;;;;;;;;;;;0.36;100.00;96501.72;5046918;28;20266;-66
2022/12/29 00:11:12;;;;;;;;;;;;;;;0.44;100.00;96500.22;5041358;28;19947;-67
2022/12/29 00:16:21;;;;;;;;;;;;;;;0.52;100.00;96507.56;5021005;28;19980;-68
2022/12/29 00:18:47;;;;;;;;;;;;;;;0.53;100.00;96479.50;5044052;28;20012;-64
2022/12/29 00:35:09;;;;;;;;;;;;;;;0.88;100.00;96482.41;5043939;28;19928;-65
2022/12/29 00:45:49;;;;;;;;;;;;;;;0.84;100.00;96489.53;5042815;28;19928;-65
2022/12/29 00:48:15;;;;;;;;;;;;;;;0.93;100.00;96480.38;5021968;28;19917;-65
2022/12/29 00:50:40;;;;;;;;;;;;;;;0.72;100.00;96480.13;5043858;28;20366;-66
2022/12/29 00:53:05;;;;;;;;;;;;;;;0.55;100.00;96490.78;5048524;28;19921;-65
2022/12/29 00:55:30;;;;;;;;;;;;;;;0.49;100.00;96483.94;5046592;28;19928;-66
2022/12/29 00:57:56;;;;;;;;;;;;;;;0.52;100.00;96489.50;5025454;28;20019;-65
2022/12/29 01:00:21;;;;;;;;;;;;;;;0.50;100.00;96480.13;5052324;28;19932;-66
2022/12/29 01:02:46;;;;;;;;;;;;;;;0.71;100.00;96485.81;5062343;28;20448;-66
2022/12/29 01:05:11;;;;;;;;;;;;;;;0.74;100.00;96490.59;5057330;28;20277;-67
2022/12/29 01:07:37;;;;;;;;;;;;;;;0.76;100.00;96483.78;5062478;28;19932;-66
2022/12/29 01:10:11;;;;;;;;;;;;;;;0.80;100.00;96485.88;5058949;28;19920;-65
2022/12/29 01:12:44;;;;;;;;;;;;;;;0.98;100.00;96479.47;5063060;28;19977;-66
2022/12/29 01:15:11;;;;;;;;;;;;;;;0.61;100.00;96480.66;5049443;28;20298;-67
2022/12/29 01:17:37;;;;;;;;;;;;;;;0.52;100.00;96481.44;5041512;28;20277;-66
2022/12/29 01:20:03;;;;;;;;;;;;;;;0.56;100.00;96477.00;5041946;28;19917;-65
2022/12/29 01:22:28;;;;;;;;;;;;;;;0.51;100.00;96470.94;5022354;28;19986;-67
2022/12/29 01:24:53;;;;;;;;;;;;;;;0.53;100.00;96480.31;5024710;28;19991;-66
2022/12/29 01:27:18;;;;;;;;;;;;;;;0.65;100.00;96479.75;5036318;28;19944;-67
2022/12/29 01:29:43;;;;;;;;;;;;;;;0.72;100.00;96487.38;5042807;28;19916;-67
2022/12/29 01:32:09;;;;;;;;;;;;;;;0.92;100.00;96484.19;5037226;28;19916;-66
2022/12/29 01:34:34;;;;;;;;;;;;;;;1.03;100.00;96482.03;5042448;28;20472;-66
2022/12/29 01:36:59;;;;;;;;;;;;;;;1.09;100.00;96488.09;5041606;28;19917;-66
2022/12/29 01:39:25;;;;;;;;;;;;;;;1.16;100.00;96491.13;5038513;28;20344;-65
2022/12/29 01:41:50;;;;;;;;;;;;;;;1.22;100.00;96494.47;5043789;28;19947;-66
2022/12/29 01:44:53;;;;;;;;;;;;;;;1.19;100.00;96495.09;5037148;28;19943;-66
2022/12/29 01:47:29;;;;;;;;;;;;;;;1.14;100.00;96491.44;4954321;28;19981;-69
2022/12/29 01:49:55;;;;;;;;;;;;;;;1.07;100.00;96501.88;4961241;28;20021;-66
2022/12/29 01:52:22;;;;;;;;;;;;;;;0.95;100.00;96502.47;5002747;28;19931;-66
2022/12/29 01:54:50;;;;;;;;;;;;;;;1.03;100.00;96502.81;5043461;28;19932;-66
2022/12/29 01:57:20;;;;;;;;;;;;;;;0.98;100.00;96503.72;5018627;28;19920;-66
2022/12/29 01:59:52;;;;;;;;;;;;;;;1.14;100.00;96502.22;5040311;28;20050;-65
2022/12/29 02:02:17;;;;;;;;;;;;;;;1.26;100.00;96500.84;5037088;28;19928;-66
2022/12/29 02:04:46;;;;;;;;;;;;;;;1.18;100.00;96502.41;5041717;28;20007;-66
2022/12/29 02:07:16;;;;;;;;;;;;;;;1.25;100.00;96497.34;5047038;28;19921;-66
2022/12/29 02:09:42;;;;;;;;;;;;;;;1.27;100.00;96495.13;5062504;28;19924;-67
2022/12/29 02:12:07;;;;;;;;;;;;;;;1.43;100.00;96500.91;5056637;28;19921;-67
2022/12/29 02:14:33;;;;;;;;;;;;;;;1.50;100.00;96492.38;5060235;28;20028;-66
2022/12/29 02:17:12;;;;;;;;;;;;;;;1.18;100.00;96475.41;5062304;28;19920;-67
2022/12/29 02:19:50;;;;;;;;;;;;;;;1.15;100.00;96476.03;5067984;28;20257;-66
2022/12/29 02:22:22;;;;;;;;;;;;;;;1.19;100.00;96485.13;5060693;28;19971;-66
2022/12/29 02:25:06;;;;;;;;;;;;;;;1.26;100.00;96487.34;5061365;28;19991;-66
2022/12/29 02:27:39;;;;;;;;;;;;;;;1.38;100.00;96473.28;5058891;28;20446;-67
2022/12/29 02:30:04;;;;;;;;;;;;;;;1.40;100.00;96479.16;5055965;28;19939;-66
2022/12/29 02:32:29;;;;;;;;;;;;;;;1.45;100.00;96484.41;5043408;28;19917;-66
2022/12/29 02:35:15;;;;;;;;;;;;;;;1.69;100.00;96486.69;5061588;28;20014;-67
2022/12/29 02:37:40;;;;;;;;;;;;;;;1.71;100.00;96476.38;5059942;28;19916;-67
2022/12/29 02:40:11;;;;;;;;;;;;;;;1.74;100.00;96480.38;5038065;28;19923;-66
2022/12/29 02:42:57;;;;;;;;;;;;;;;1.83;100.00;96471.16;5061437;28;19920;-67
2022/12/29 02:45:36;;;;;;;;;;;;;;;1.93;100.00;96475.47;5039956;28;19924;-67
2022/12/29 02:48:10;;;;;;;;;;;;;;;1.85;100.00;96478.94;5063721;28;20430;-63
2022/12/29 02:50:42;;;;;;;;;;;;;;;1.81;100.00;96472.59;5065362;28;19920;-66
2022/12/29 02:53:15;;;;;;;;;;;;;;;1.83;100.00;96475.78;5046473;28;19917;-65
2022/12/29 02:55:47;;;;;;;;;;;;;;;1.81;100.00;96461.78;5054428;28;19924;-66
2022/12/29 02:58:20;;;;;;;;;;;;;;;1.79;100.00;96464.81;5060159;28;19920;-66
2022/12/29 03:01:04;;;;;;;;;;;;;;;1.93;100.00;96475.47;5046970;28;19921;-66
2022/12/29 03:03:30;;;;;;;;;;;;;;;2.07;100.00;96470.72;5044628;28;19924;-66
2022/12/29 03:06:01;;;;;;;;;;;;;;;2.20;100.00;96468.19;5044924;28;19920;-66
2022/12/29 03:08:31;;;;;;;;;;;;;;;2.33;100.00;96472.63;5042616;28;19925;-65
2022/12/29 03:11:03;;;;;;;;;;;;;;;2.95;100.00;96462.50;5045866;28;20379;-65
2022/12/29 03:16:18;;;;;;;;;;;;;;;3.40;100.00;96470.16;5039600;28;19920;-66
2022/12/29 03:19:04;;;;;;;;;;;;;;;4.04;97.56;96457.53;5045880;28;19924;-65
2022/12/29 03:22:26;;;;;;;;;;;;;;;4.63;93.55;96460.06;5045016;28;19931;-65
2022/12/29 03:24:15;;;;;;;;;;;;;;;5.34;88.44;96464.41;5038785;28;19925;-66
2022/12/29 03:26:41;;;;;;;;;;;;;;;6.00;83.91;96454.44;5045887;28;19920;-66
2022/12/29 03:29:08;;;;;;;;;;;;;;;5.98;84.73;96443.13;5043400;28;19963;-66
2022/12/29 03:31:34;;;;;;;;;;;;;;;5.92;85.42;96439.84;5044915;28;19920;-66
2022/12/29 03:34:00;;;;;;;;;;;;;;;6.17;83.60;96431.63;5045353;28;20483;-66
2022/12/29 03:36:47;;;;;;;;;;;;;;;6.44;82.15;96427.34;5020697;28;19968;-66
2022/12/29 03:39:13;;;;;;;;;;;;;;;6.79;79.66;96434.09;5039245;28;19917;-66
2022/12/29 03:41:40;;;;;;;;;;;;;;;7.05;77.12;96428.97;5044734;28;20423;-65
2022/12/29 03:44:06;;;;;;;;;;;;;;;7.42;73.54;96436.91;5022241;28;20412;-65
2022/12/29 03:46:31;;;;;;;;;;;;;;;7.60;72.17;96426.44;5044027;28;19925;-65
2022/12/29 03:48:57;;;;;;;;;;;;;;;7.70;71.77;96424.28;5044836;28;20404;-65
2022/12/29 03:51:22;;;;;;;;;;;;;;;7.79;69.89;96424.91;5040434;28;19928;-66
2022/12/29 03:53:47;;;;;;;;;;;;;;;7.89;69.48;96410.72;5045034;28;20550;-66
2022/12/29 03:56:13;;;;;;;;;;;;;;;8.04;68.71;96412.59;5039788;28;19924;-64
2022/12/29 03:58:38;;;;;;;;;;;;;;;8.03;69.16;96402.84;5056369;28;20006;-65
2022/12/29 04:01:03;;;;;;;;;;;;;;;8.13;68.45;96426.03;5062941;28;20393;-64
2022/12/29 04:03:28;;;;;;;;;;;;;;;8.18;68.35;96438.63;5043997;28;19942;-66
2022/12/29 04:05:54;;;;;;;;;;;;;;;8.11;68.58;96425.59;5045995;28;19977;-65
2022/12/29 04:08:19;;;;;;;;;;;;;;;8.20;67.64;96428.91;5060743;28;20411;-65
2022/12/29 04:10:44;;;;;;;;;;;;;;;8.26;66.78;96423.97;5063772;28;19917;-64
2022/12/29 04:13:10;;;;;;;;;;;;;;;8.45;63.73;96425.16;5058396;28;19931;-65
2022/12/29 04:15:36;;;;;;;;;;;;;;;8.24;65.59;96431.72;5053288;28;20011;-65
2022/12/29 04:18:02;;;;;;;;;;;;;;;8.08;66.54;96422.78;5041857;28;19956;-70
2022/12/29 04:23:11;;;;;;;;;;;;;;;8.16;64.91;96430.78;5038335;28;19928;-68
2022/12/29 04:25:36;;;;;;;;;;;;;;;8.14;64.56;96429.53;5043179;28;19925;-68
2022/12/29 04:28:02;;;;;;;;;;;;;;;8.31;61.89;96404.56;5042766;28;19920;-68
2022/12/29 04:30:27;;;;;;;;;;;;;;;8.44;61.10;96421.63;5040591;28;19972;-68
2022/12/29 04:32:52;;;;;;;;;;;;;;;8.28;61.26;96434.50;5043612;28;19917;-68
2022/12/29 04:35:18;;;;;;;;;;;;;;;8.16;61.54;96425.31;5037910;28;19921;-68
2022/12/29 04:37:43;;;;;;;;;;;;;;;8.17;62.87;96424.16;5043055;28;19917;-68
2022/12/29 04:40:09;;;;;;;;;;;;;;;8.26;62.25;96439.53;5039397;28;19917;-68
2022/12/29 04:42:34;;;;;;;;;;;;;;;8.20;62.96;96433.59;5039067;28;19971;-68
2022/12/29 04:44:59;;;;;;;;;;;;;;;8.13;63.34;96425.25;5047851;28;19921;-70
2022/12/29 04:47:24;;;;;;;;;;;;;;;8.16;63.09;96425.31;5037538;28;19917;-69
2022/12/29 04:49:50;;;;;;;;;;;;;;;8.15;63.03;96428.41;5043292;28;19923;-69
2022/12/29 04:52:15;;;;;;;;;;;;;;;8.14;63.30;96432.25;5020442;28;20422;-69
2022/12/29 04:54:40;;;;;;;;;;;;;;;8.13;63.27;96425.25;5042720;28;19923;-70
2022/12/29 04:57:06;;;;;;;;;;;;;;;8.13;62.21;96423.31;5054706;28;19916;-69
2022/12/29 04:59:31;;;;;;;;;;;;;;;8.11;62.18;96414.69;5055305;28;19959;-69
2022/12/29 05:01:56;;;;;;;;;;;;;;;8.12;61.47;96405.38;5042327;28;19960;-69
2022/12/29 05:04:22;;;;;;;;;;;;;;;8.26;59.11;96423.19;5039027;28;20451;-69
2022/12/29 05:06:47;;;;;;;;;;;;;;;8.35;58.29;96416.34;5042427;28;20401;-69
2022/12/29 05:09:12;;;;;;;;;;;;;;;8.30;58.57;96419.38;5038501;28;19924;-69
2022/12/29 05:11:37;;;;;;;;;;;;;;;8.32;57.71;96421.72;5043558;28;19927;-70
2022/12/29 05:14:03;;;;;;;;;;;;;;;8.26;57.50;96415.78;5039904;28;20381;-69
2022/12/29 05:16:28;;;;;;;;;;;;;;;8.21;57.21;96416.06;5048244;28;20351;-69
2022/12/29 05:18:53;;;;;;;;;;;;;;;8.23;56.12;96421.97;5043607;28;19917;-69
2022/12/29 05:21:18;;;;;;;;;;;;;;;8.21;56.57;96426.97;5037218;28;20002;-69
2022/12/29 05:23:44;;;;;;;;;;;;;;;8.11;58.42;96417.41;5043331;28;20007;-70
2022/12/29 05:26:09;;;;;;;;;;;;;;;7.86;59.38;96425.06;5036915;28;20019;-69
2022/12/29 05:28:34;;;;;;;;;;;;;;;7.71;60.16;96423.94;5043115;28;19956;-68
2022/12/29 05:30:59;;;;;;;;;;;;;;;7.64;61.17;96427.28;5049626;28;19917;-68
2022/12/29 05:33:25;;;;;;;;;;;;;;;7.59;60.81;96427.56;5044817;28;19978;-68
2022/12/29 05:35:50;;;;;;;;;;;;;;;7.67;61.48;96425.81;5041745;28;19928;-68
2022/12/29 05:38:15;;;;;;;;;;;;;;;7.58;62.80;96427.91;5037788;28;19949;-68
2022/12/29 05:40:40;;;;;;;;;;;;;;;7.37;68.21;96422.75;5042993;28;19921;-69
2022/12/29 05:43:06;;;;;;;;;;;;;;;7.06;72.56;96418.88;5036531;28;19921;-68
2022/12/29 05:45:31;;;;;;;;;;;;;;;6.84;74.05;96431.94;5040756;28;19924;-68
2022/12/29 05:47:56;;;;;;;;;;;;;;;6.65;75.79;96434.53;5041706;28;19917;-68
2022/12/29 05:50:22;;;;;;;;;;;;;;;6.38;78.02;96433.41;5038026;28;20164;-69
2022/12/29 05:52:47;;;;;;;;;;;;;;;6.10;82.40;96437.69;5042664;28;19928;-68
2022/12/29 05:55:12;;;;;;;;;;;;;;;5.92;84.64;96442.56;5039167;28;20532;-69
2022/12/29 05:57:38;;;;;;;;;;;;;;;6.01;93.55;96438.94;5061238;28;19950;-68
2022/12/29 06:00:04;;;;;;;;;;;;;;;5.94;96.36;96437.56;5046674;28;19921;-69
2022/12/29 06:02:29;;;;;;;;;;;;;;;5.92;98.74;96441.75;5027359;28;19921;-69
2022/12/29 06:04:54;;;;;;;;;;;;;;;5.92;100.00;96439.84;5043777;28;19928;-69
2022/12/29 06:07:19;;;;;;;;;;;;;;;5.93;100.00;96440.63;5036235;28;19920;-69
2022/12/29 06:09:45;;;;;;;;;;;;;;;5.90;100.00;96444.00;5042294;28;19939;-68
2022/12/29 06:12:10;;;;;;;;;;;;;;;5.82;100.00;96436.78;5036720;28;20015;-69
2022/12/29 06:14:35;;;;;;;;;;;;;;;5.80;99.66;96433.59;5042032;28;19917;-68
2022/12/29 06:17:01;;;;;;;;;;;;;;;5.81;100.00;96437.91;5039064;28;20015;-68
2022/12/29 06:19:26;;;;;;;;;;;;;;;5.85;100.00;96431.47;5035713;28;19924;-69
2022/12/29 06:21:52;;;;;;;;;;;;;;;5.87;100.00;96441.97;5046191;28;19917;-68
2022/12/29 06:24:18;;;;;;;;;;;;;;;5.92;99.11;96441.75;5036040;28;20015;-68
2022/12/29 06:26:43;;;;;;;;;;;;;;;6.02;97.11;96446.75;5021978;28;20171;-69
2022/12/29 06:29:08;;;;;;;;;;;;;;;6.01;95.92;96444.38;5035966;28;19944;-68
2022/12/29 06:31:34;;;;;;;;;;;;;;;6.05;95.10;96447.97;5041778;28;19920;-68
2022/12/29 06:33:59;;;;;;;;;;;;;;;6.09;93.94;96444.25;5041802;28;19924;-68
2022/12/29 06:36:24;;;;;;;;;;;;;;;6.23;91.67;96445.78;5036728;28;20346;-68
2022/12/29 06:38:52;;;;;;;;;;;;;;;6.09;93.84;96440.72;5042141;28;19917;-69
2022/12/29 06:41:17;;;;;;;;;;;;;;;6.25;88.91;96455.19;5018661;28;19916;-68
2022/12/29 06:43:42;;;;;;;;;;;;;;;6.35;84.88;96461.28;5041814;28;19917;-68
2022/12/29 06:46:08;;;;;;;;;;;;;;;6.50;79.11;96445.03;5035799;28;20352;-68
2022/12/29 06:48:33;;;;;;;;;;;;;;;6.72;76.55;96445.63;5042490;28;19924;-68
2022/12/29 06:50:58;;;;;;;;;;;;;;;7.17;72.07;96430.06;5041665;28;19921;-68
2022/12/29 06:53:24;;;;;;;;;;;;;;;7.51;70.02;96438.63;5049730;28;20725;-69
2022/12/29 06:55:50;;;;;;;;;;;;;;;7.65;69.01;96434.34;5043169;28;20015;-68
2022/12/29 06:58:15;;;;;;;;;;;;;;;7.82;69.23;96440.56;5036634;28;19921;-69
2022/12/29 07:00:40;;;;;;;;;;;;;;;7.97;67.70;96447.88;5059006;28;19920;-69
2022/12/29 07:03:06;;;;;;;;;;;;;;;8.09;67.03;96451.66;5071499;28;19931;-69
2022/12/29 07:05:32;;;;;;;;;;;;;;;8.21;66.80;96456.97;5063809;28;20377;-69
2022/12/29 07:07:58;;;;;;;;;;;;;;;8.24;66.39;96448.09;5061000;28;20015;-71
2022/12/29 07:10:23;;;;;;;;;;;;;;;8.32;65.87;96446.28;5039010;28;19947;-69
2022/12/29 07:12:48;;;;;;;;;;;;;;;8.20;66.05;96453.47;5057637;28;19917;-68
2022/12/29 07:15:14;;;;;;;;;;;;;;;8.09;67.29;96454.41;5056342;28;19959;-68
2022/12/29 07:17:39;;;;;;;;;;;;;;;8.13;67.52;96457.97;5060343;28;19923;-69
2022/12/29 07:20:05;;;;;;;;;;;;;;;8.01;67.72;96459.69;5057950;28;19944;-68
2022/12/29 07:22:30;;;;;;;;;;;;;;;7.91;68.26;96454.00;5061403;28;19917;-69
2022/12/29 07:24:56;;;;;;;;;;;;;;;7.94;67.80;96447.81;5065266;28;19936;-69
2022/12/29 07:27:21;;;;;;;;;;;;;;;7.86;68.78;96444.13;5039318;28;19935;-68
2022/12/29 07:29:46;;;;;;;;;;;;;;;7.86;68.82;96446.88;5041282;28;19971;-70
2022/12/29 07:32:11;;;;;;;;;;;;;;;7.96;68.00;96457.22;5057190;28;19987;-69
2022/12/29 07:34:39;;;;;;;;;;;;;;;8.17;67.54;96448.72;5047457;28;20385;-69
2022/12/29 07:37:04;;;;;;;;;;;;;;;8.04;69.11;96456.22;5039366;28;19917;-66
2022/12/29 07:39:29;;;;;;;;;;;;;;;8.11;68.55;96461.06;5064897;28;20357;-65
2022/12/29 07:41:55;;;;;;;;;;;;;;;8.22;68.29;96466.75;5064767;28;19928;-65
2022/12/29 07:44:20;;;;;;;;;;;;;;;8.12;68.99;96473.56;5058366;28;20397;-65
2022/12/29 07:46:45;;;;;;;;;;;;;;;8.07;68.84;96470.31;5065892;28;19920;-66
2022/12/29 07:49:10;;;;;;;;;;;;;;;8.21;67.94;96465.16;5062075;28;20011;-65
2022/12/29 07:51:36;;;;;;;;;;;;;;;8.20;67.44;96469.84;5064544;28;19923;-67
2022/12/29 07:54:01;;;;;;;;;;;;;;;8.16;68.41;96479.88;5045459;28;20352;-65
2022/12/29 07:56:27;;;;;;;;;;;;;;;8.16;68.43;96476.38;5054604;28;20019;-67
2022/12/29 07:58:52;;;;;;;;;;;;;;;8.21;68.40;96479.59;5062871;28;19971;-67
2022/12/29 08:01:17;;;;;;;;;;;;;;;8.20;69.05;96482.69;5038709;28;19920;-65
2022/12/29 08:03:43;;;;;;;;;;;;;;;8.20;69.14;96490.88;5044837;28;19921;-66
2022/12/29 08:06:11;;;;;;;;;;;;;;;8.40;68.36;96489.75;5038216;28;20488;-66
2022/12/29 08:08:36;;;;;;;;;;;;;;;8.47;69.18;96499.28;5045045;28;19987;-65
2022/12/29 08:11:02;;;;;;;;;;;;;;;8.27;68.17;96498.44;5043461;28;19916;-63
2022/12/29 08:13:27;;;;;;;;;;;;;;;8.04;69.04;96501.81;5041951;28;19920;-65
2022/12/29 08:15:52;;;;;;;;;;;;;;;7.89;70.49;96494.47;5043374;28;19920;-66
2022/12/29 08:18:18;;;;;;;;;;;;;;;7.75;71.01;96489.47;5039174;28;19923;-66
2022/12/29 08:20:43;;;;;;;;;;;;;;;7.70;70.56;96495.94;5044217;28;20390;-66
2022/12/29 08:23:08;;;;;;;;;;;;;;;7.68;69.54;96505.66;5039578;28;19917;-64
2022/12/29 08:25:33;;;;;;;;;;;;;;;7.71;69.35;96496.78;5042922;28;19925;-66
2022/12/29 08:27:59;;;;;;;;;;;;;;;7.77;68.81;96496.13;5042641;28;20362;-65
2022/12/29 08:30:24;;;;;;;;;;;;;;;7.80;69.23;96502.81;5036984;28;19917;-65
2022/12/29 08:32:49;;;;;;;;;;;;;;;7.67;70.75;96507.59;5043721;28;19924;-65
2022/12/29 08:35:14;;;;;;;;;;;;;;;7.77;70.67;96506.25;5044786;28;19988;-65
2022/12/29 08:37:40;;;;;;;;;;;;;;;7.70;70.80;96514.25;5057277;28;19921;-65
2022/12/29 08:40:05;;;;;;;;;;;;;;;7.61;72.05;96504.31;5058943;28;19920;-65
2022/12/29 08:42:31;;;;;;;;;;;;;;;7.89;72.09;96502.66;5062331;28;19920;-65
2022/12/29 08:44:57;;;;;;;;;;;;;;;8.04;72.01;96502.59;5062605;28;20448;-66
2022/12/29 08:47:22;;;;;;;;;;;;;;;8.23;68.47;96509.28;5057164;28;19998;-66
2022/12/29 08:49:47;;;;;;;;;;;;;;;8.18;69.45;96518.50;5062108;28;19924;-66
2022/12/29 08:52:13;;;;;;;;;;;;;;;8.09;69.05;96511.69;5054068;28;19916;-65
2022/12/29 08:54:38;;;;;;;;;;;;;;;8.19;68.13;96502.91;5056915;28;19946;-64
2022/12/29 08:57:03;;;;;;;;;;;;;;;8.17;68.22;96521.59;5041929;28;20362;-65
2022/12/29 08:59:29;;;;;;;;;;;;;;;8.22;68.38;96504.94;5043133;28;19923;-66
2022/12/29 09:01:55;;;;;;;;;;;;;;;8.30;67.44;96516.81;5043590;28;19968;-66
2022/12/29 09:04:20;;;;;;;;;;;;;;;8.42;67.51;96505.81;5038421;28;20011;-65
2022/12/29 09:06:45;;;;;;;;;;;;;;;8.53;66.57;96511.50;5042868;28;20015;-66
2022/12/29 09:09:11;;;;;;;;;;;;;;;8.55;67.14;96522.84;5038577;28;20432;-65
2022/12/29 09:11:36;;;;;;;;;;;;;;;8.91;64.57;96527.13;5063310;28;19948;-66
2022/12/29 09:14:01;;;;;;;;;;;;;;;8.98;64.38;96527.25;5062562;28;19920;-66
2022/12/29 09:16:27;;;;;;;;;;;;;;;9.10;63.50;96520.06;5058505;28;20011;-67
2022/12/29 09:18:52;;;;;;;;;;;;;;;9.26;62.05;96519.97;5062483;28;19921;-66
2022/12/29 09:21:17;;;;;;;;;;;;;;;9.22;61.96;96519.09;5058201;28;20396;-67
2022/12/29 09:23:43;;;;;;;;;;;;;;;9.26;62.02;96525.44;5062227;28;20007;-67
2022/12/29 09:26:08;;;;;;;;;;;;;;;9.45;60.69;96524.59;5055415;28;20027;-67
2022/12/29 09:28:34;;;;;;;;;;;;;;;9.52;60.34;96522.75;5062760;28;19916;-67
2022/12/29 09:30:59;;;;;;;;;;;;;;;9.63;59.89;96524.91;5062373;28;20400;-67
2022/12/29 09:33:25;;;;;;;;;;;;;;;9.61;60.49;96524.47;5059793;28;19970;-64
2022/12/29 09:35:52;;;;;;;;;;;;;;;9.68;60.98;96519.13;5063132;28;19920;-65
2022/12/29 09:38:17;;;;;;;;;;;;;;;10.03;56.48;96518.94;5057001;28;19924;-67
2022/12/29 09:40:45;;;;;;;;;;;;;;;10.16;55.30;96522.25;5061702;28;19920;-68
2022/12/29 09:43:16;;;;;;;;;;;;;;;10.38;50.49;96517.91;5055576;28;19970;-66
2022/12/29 09:45:53;;;;;;;;;;;;;;;10.52;48.97;96509.88;5062270;28;19930;-67
2022/12/29 09:48:31;;;;;;;;;;;;;;;10.65;47.93;96523.34;5057936;28;19956;-66
2022/12/29 09:50:59;;;;;;;;;;;;;;;10.88;47.92;96515.81;5061562;28;20357;-66
2022/12/29 09:53:25;;;;;;;;;;;;;;;10.82;52.66;96513.75;5055645;28;19951;-66
2022/12/29 09:55:52;;;;;;;;;;;;;;;11.12;53.37;96519.22;5043255;28;20407;-66
2022/12/29 09:58:34;;;;;;;;;;;;;;;11.64;51.21;96511.13;5036897;28;20274;-66
2022/12/29 10:01:02;;;;;;;;;;;;;;;11.92;51.23;96509.81;5060569;28;20293;-66
2022/12/29 10:03:36;;;;;;;;;;;;;;;12.55;50.60;96513.38;5058521;28;19920;-66
2022/12/29 10:06:10;;;;;;;;;;;;;;;12.73;48.38;96508.78;5063442;28;19934;-64
2022/12/29 10:08:50;;;;;;;;;;;;;;;13.00;47.96;96497.50;5065724;28;19960;-66
2022/12/29 10:11:22;;;;;;;;;;;;;;;13.86;46.28;96500.44;5056032;28;19924;-66
2022/12/29 10:13:53;;;;;;;;;;;;;;;13.17;44.32;96494.00;5061174;28;19927;-65
2022/12/29 10:16:24;;;;;;;;;;;;;;;13.17;43.68;96488.50;5056256;28;19927;-66
2022/12/29 10:18:52;;;;;;;;;;;;;;;13.05;43.40;96486.13;5062260;28;19924;-66
2022/12/29 10:21:35;;;;;;;;;;;;;;;13.12;44.37;96493.59;5057044;28;19923;-65
2022/12/29 10:24:03;;;;;;;;;;;;;;;13.41;43.88;96494.47;5062064;28;19920;-64
2022/12/29 10:26:31;;;;;;;;;;;;;;;13.58;42.84;96474.47;5059570;28;20394;-66
2022/12/29 10:29:04;;;;;;;;;;;;;;;14.02;40.92;96488.25;5061750;28;19924;-66
2022/12/29 10:31:35;;;;;;;;;;;;;;;13.67;41.59;96473.31;5060763;28;19917;-66
2022/12/29 10:34:03;;;;;;;;;;;;;;;13.54;42.16;96468.19;5060567;28;19921;-66
2022/12/29 10:36:39;;;;;;;;;;;;;;;13.61;42.17;96464.63;5059000;28;19923;-66
2022/12/29 10:39:05;;;;;;;;;;;;;;;13.50;41.39;96472.09;5039611;28;20005;-65
2022/12/29 10:41:40;;;;;;;;;;;;;;;13.40;42.54;96468.16;5061870;28;19948;-65
2022/12/29 10:44:09;;;;;;;;;;;;;;;13.25;41.68;96467.31;5056565;28;19923;-65
2022/12/29 10:46:35;;;;;;;;;;;;;;;13.18;42.37;96461.78;5060480;28;19925;-65
2022/12/29 10:49:01;;;;;;;;;;;;;;;13.01;42.73;96455.84;5061449;28;19921;-72
2022/12/29 10:51:33;;;;;;;;;;;;;;;13.00;42.89;96451.56;5057874;28;19952;-72
2022/12/29 10:54:04;;;;;;;;;;;;;;;12.73;44.13;96448.31;5043288;28;19921;-69
2022/12/29 10:56:35;;;;;;;;;;;;;;;12.73;45.55;96428.28;5057693;28;20487;-67
2022/12/29 10:59:10;;;;;;;;;;;;;;;12.49;46.05;96438.00;5060363;28;20428;-65
2022/12/29 11:01:46;;;;;;;;;;;;;;;12.34;45.91;96435.19;5059746;28;19925;-66
2022/12/29 11:04:29;;;;;;;;;;;;;;;12.24;46.34;96422.19;5055840;28;19944;-66
2022/12/29 11:06:54;;;;;;;;;;;;;;;12.15;47.13;96430.75;5062928;28;19952;-66
2022/12/29 11:09:24;;;;;;;;;;;;;;;11.95;48.26;96424.75;5060487;28;19920;-66
2022/12/29 11:11:49;;;;;;;;;;;;;;;12.07;48.56;96417.41;5064923;28;19964;-66
2022/12/29 11:14:18;;;;;;;;;;;;;;;12.17;48.95;96420.22;5040041;28;20357;-65
2022/12/29 11:16:44;;;;;;;;;;;;;;;13.31;47.06;96419.03;5065418;28;20288;-65
2022/12/29 11:19:21;;;;;;;;;;;;;;;13.60;46.51;96407.28;5060839;28;20288;-66
2022/12/29 11:21:46;;;;;;;;;;;;;;;13.89;45.83;96410.78;5066930;28;19916;-66
2022/12/29 11:24:19;;;;;;;;;;;;;;;13.72;45.19;96413.16;5061560;28;20015;-65
2022/12/29 11:26:44;;;;;;;;;;;;;;;13.42;46.17;96416.28;5063739;28;20304;-64
2022/12/29 11:29:16;;;;;;;;;;;;;;;13.32;46.85;96425.31;5059411;28;20003;-65
2022/12/29 11:31:45;;;;;;;;;;;;;;;13.29;47.45;96424.13;5064215;28;19924;-68
2022/12/29 11:34:18;;;;;;;;;;;;;;;12.81;48.56;96421.66;5059190;28;19917;-66
2022/12/29 11:36:43;;;;;;;;;;;;;;;12.79;48.99;96410.25;5070291;28;19916;-67
2022/12/29 11:39:23;;;;;;;;;;;;;;;12.59;48.88;96418.81;5046279;28;19917;-67
2022/12/29 11:41:52;;;;;;;;;;;;;;;12.82;48.34;96407.53;5043213;28;20047;-66
2022/12/29 11:44:17;;;;;;;;;;;;;;;12.81;47.93;96414.19;5021417;28;19944;-69
2022/12/29 11:46:46;;;;;;;;;;;;;;;12.48;47.66;96409.75;5026301;28;20397;-67
2022/12/29 11:49:13;;;;;;;;;;;;;;;12.24;48.57;96403.78;5041216;28;19917;-66
2022/12/29 11:51:44;;;;;;;;;;;;;;;12.11;48.26;96418.19;5050043;28;19920;-66
2022/12/29 11:54:15;;;;;;;;;;;;;;;12.03;48.55;96406.41;5032273;28;19925;-66
2022/12/29 11:56:42;;;;;;;;;;;;;;;12.31;48.26;96403.00;5055032;28;19920;-65
2022/12/29 11:59:26;;;;;;;;;;;;;;;12.15;48.85;96403.31;5043036;28;20007;-67
2022/12/29 12:01:51;;;;;;;;;;;;;;;11.96;49.73;96409.09;5027501;28;19936;-66
2022/12/29 12:04:19;;;;;;;;;;;;;;;11.96;49.30;96404.38;5039271;28;19916;-66
2022/12/29 12:07:02;;;;;;;;;;;;;;;11.99;49.17;96408.31;5042970;28;19927;-67
2022/12/29 12:09:31;;;;;;;;;;;;;;;11.95;49.83;96402.81;5051198;28;19923;-66
2022/12/29 12:11:57;;;;;;;;;;;;;;;12.08;49.18;96399.75;5043414;28;19921;-65
2022/12/29 12:14:30;;;;;;;;;;;;;;;12.23;49.60;96390.44;5049670;28;20634;-65
2022/12/29 12:16:56;;;;;;;;;;;;;;;12.13;49.32;96394.66;5060291;28;19963;-67
2022/12/29 12:19:41;;;;;;;;;;;;;;;12.03;50.51;96389.94;5058526;28;19924;-68
2022/12/29 12:22:15;;;;;;;;;;;;;;;11.96;51.15;96398.13;5058667;28;19917;-67
2022/12/29 12:24:40;;;;;;;;;;;;;;;11.75;51.80;96391.28;5045047;28;19917;-67
2022/12/29 12:27:20;;;;;;;;;;;;;;;11.56;52.23;96388.78;5057597;28;19920;-66
2022/12/29 12:29:50;;;;;;;;;;;;;;;11.49;53.61;96392.28;5063597;28;19917;-67
2022/12/29 12:32:18;;;;;;;;;;;;;;;11.28;55.42;96390.94;5057321;28;19916;-68
2022/12/29 12:34:45;;;;;;;;;;;;;;;11.16;55.54;96404.91;5063215;28;19973;-73
2022/12/29 12:37:19;;;;;;;;;;;;;;;11.06;56.59;96394.66;5057731;28;19916;-71
2022/12/29 12:39:53;;;;;;;;;;;;;;;11.07;57.38;96377.84;5062904;28;19917;-70
2022/12/29 12:42:37;;;;;;;;;;;;;;;10.96;58.03;96379.66;5042468;28;19947;-72
2022/12/29 12:45:21;;;;;;;;;;;;;;;10.90;59.42;96381.97;5060034;28;19916;-70
2022/12/29 12:48:05;;;;;;;;;;;;;;;10.89;60.16;96365.91;5063479;28;19916;-70
2022/12/29 12:50:30;;;;;;;;;;;;;;;10.90;60.36;96375.72;5063064;28;19923;-71
2022/12/29 12:52:59;;;;;;;;;;;;;;;10.87;60.08;96363.53;5036761;28;19976;-72
2022/12/29 12:55:38;;;;;;;;;;;;;;;10.82;60.64;96368.56;5041726;28;19964;-70
2022/12/29 12:58:03;;;;;;;;;;;;;;;10.81;60.05;96376.00;5040725;28;20011;-71
2022/12/29 13:00:33;;;;;;;;;;;;;;;10.69;60.89;96374.31;5061761;28;19955;-72
2022/12/29 13:03:02;;;;;;;;;;;;;;;10.67;61.32;96360.19;5062633;28;20389;-71
2022/12/29 13:05:30;;;;;;;;;;;;;;;10.64;61.09;96358.25;5058760;28;19921;-71
2022/12/29 13:08:01;;;;;;;;;;;;;;;10.64;60.66;96358.25;5063501;28;19921;-72
2022/12/29 13:10:40;;;;;;;;;;;;;;;10.58;60.82;96362.47;5058130;28;19969;-73
2022/12/29 13:13:18;;;;;;;;;;;;;;;10.54;61.28;96356.16;5039594;28;20381;-70
2022/12/29 13:15:53;;;;;;;;;;;;;;;10.57;61.18;96355.41;5060778;28;19920;-70
2022/12/29 13:18:25;;;;;;;;;;;;;;;10.58;61.19;96348.75;5058798;28;19920;-72
2022/12/29 13:21:10;;;;;;;;;;;;;;;10.66;61.63;96349.63;5063172;28;19963;-70
2022/12/29 13:23:39;;;;;;;;;;;;;;;10.63;61.41;96344.91;5019575;28;19926;-70
2022/12/29 13:26:14;;;;;;;;;;;;;;;10.70;61.61;96348.50;5051853;28;19972;-70